Weather at Aleppo Air Defense Base Helipad

Public forecast

Using degrees Celsius for public forecast. Weather courtesy of forecast.io.

Closest aviation weather report (METAR) to Aleppo Air Defense Base Helipad

Closest report is Aleppo International Airport, 7.4 nm (13.6 km) ESE.

2024/02/25 11:00 (retrieved 14 minutes ago)

OSAP 251100Z 26008KT 7000 17/07 Q1019

Closest aviation forecast (TAF) to Aleppo Air Defense Base Helipad

Closest forecast is Gaziantep International Airport, 47.5 nm (87.9 km) NNE.

2024/02/25 06:03 (retrieved 5 hours ago)

TAF LTAJ 250440Z 2506/2606 VRB02KT CAVOK TEMPO 2520/2524 36012KT TEMPO 2600/2604 4000 BR